createdAt,value
2018-02-22T00:01:38.946Z,98472.30
2018-02-22T00:04:07.773Z,98471.34
2018-02-22T00:06:36.426Z,98470.98
2018-02-22T00:09:05.474Z,98472.16
2018-02-22T00:11:34.494Z,98469.16
2018-02-22T00:14:03.766Z,98471.70
2018-02-22T00:16:37.468Z,98467.45
2018-02-22T00:19:06.453Z,98455.12
2018-02-22T00:21:35.274Z,98462.30
2018-02-22T00:24:04.083Z,98454.89
2018-02-22T00:26:33.138Z,98455.38
2018-02-22T00:29:02.576Z,98454.42
2018-02-22T00:31:31.623Z,98450.08
2018-02-22T00:34:01.391Z,98446.29
2018-02-22T00:36:31.553Z,98448.41
2018-02-22T00:39:00.829Z,98442.35
2018-02-22T00:41:29.348Z,98444.89
2018-02-22T00:43:58.316Z,98446.19
2018-02-22T00:46:27.219Z,98440.98
2018-02-22T00:48:56.455Z,98441.94
2018-02-22T00:51:25.499Z,98441.88
2018-02-22T00:53:54.772Z,98438.78
2018-02-22T00:56:24.110Z,98435.77
2018-02-22T00:58:58.799Z,98437.16
2018-02-22T01:01:27.884Z,98435.41
2018-02-22T01:03:57.067Z,98432.83
2018-02-22T01:06:26.214Z,98433.66
2018-02-22T01:08:55.528Z,98437.86
2018-02-22T01:11:24.711Z,98428.83
2018-02-22T01:13:53.824Z,98431.08
2018-02-22T01:16:22.910Z,98432.89
2018-02-22T01:18:51.932Z,98428.63
2018-02-22T01:21:20.838Z,98435.80
2018-02-22T01:23:49.890Z,98435.46
2018-02-22T01:26:18.773Z,98435.43
2018-02-22T01:28:47.747Z,98436.21
2018-02-22T01:31:16.684Z,98437.52
2018-02-22T01:33:45.870Z,98428.57
2018-02-22T01:36:14.480Z,98421.32
2018-02-22T01:38:43.262Z,98428.83
2018-02-22T01:41:12.205Z,98430.48
2018-02-22T01:43:41.316Z,98428.43
2018-02-22T01:46:10.198Z,98425.37
2018-02-22T01:48:39.573Z,98424.95
2018-02-22T01:51:08.693Z,98425.25
2018-02-22T01:53:37.704Z,98416.66
2018-02-22T01:56:06.983Z,98413.30
2018-02-22T01:58:36.143Z,98412.45
2018-02-22T02:01:05.151Z,98410.46
2018-02-22T02:43:14.762Z,98391.97
2018-02-22T02:45:43.380Z,98385.16
2018-02-22T02:48:12.608Z,98389.38
2018-02-22T02:50:41.455Z,98384.73
2018-02-22T02:53:09.905Z,98373.94
2018-02-22T03:38:17.737Z,98363.57
2018-02-22T03:40:46.855Z,98362.31
2018-02-22T03:43:15.973Z,98363.64
2018-02-22T03:45:46.180Z,98365.35
2018-02-22T03:48:15.361Z,98366.12
2018-02-22T03:50:44.481Z,98362.24
2018-02-22T03:53:13.067Z,98371.16
2018-02-22T04:13:41.581Z,98372.23
2018-02-22T04:16:10.502Z,98376.13
2018-02-22T04:18:40.617Z,98370.91
2018-02-22T04:21:09.866Z,98375.92
2018-02-22T04:23:38.668Z,98378.52
2018-02-22T04:26:14.267Z,98378.05
2018-02-22T04:28:43.029Z,98384.27
2018-02-22T04:31:11.930Z,98378.59
2018-02-22T04:33:40.808Z,98376.41
2018-02-22T04:36:09.931Z,98375.15
2018-02-22T04:38:38.594Z,98379.51
2018-02-22T04:41:08.159Z,98378.64
2018-02-22T04:43:36.945Z,98385.02
2018-02-22T04:46:05.679Z,98388.13
2018-02-22T04:48:34.530Z,98386.70
2018-02-22T04:51:04.897Z,98385.39
2018-02-22T04:53:33.856Z,98385.02
2018-02-22T04:56:02.500Z,98385.49
2018-02-22T04:58:30.942Z,98387.68
2018-02-22T05:00:59.323Z,98387.38
2018-02-22T05:03:27.736Z,98387.76
2018-02-22T05:05:56.331Z,98387.84
2018-02-22T05:08:25.353Z,98384.78
2018-02-22T05:10:53.972Z,98386.58
2018-02-22T05:13:22.475Z,98384.05
2018-02-22T05:15:50.542Z,98377.30
2018-02-22T05:18:18.276Z,98374.31
2018-02-22T05:20:46.175Z,98372.31
2018-02-22T05:23:14.002Z,98369.47
2018-02-22T05:25:42.315Z,98364.77
2018-02-22T05:28:10.496Z,98369.39
2018-02-22T05:30:38.905Z,98367.89
2018-02-22T05:33:06.725Z,98363.23
2018-02-22T05:35:34.465Z,98365.48
2018-02-22T05:38:02.507Z,98369.78
2018-02-22T05:40:30.534Z,98364.75
2018-02-22T05:42:58.085Z,98364.39
2018-02-22T05:45:25.627Z,98372.61
2018-02-22T05:47:53.412Z,98373.14
2018-02-22T05:50:20.994Z,98371.53
2018-02-22T05:52:48.816Z,98370.77
2018-02-22T05:55:16.469Z,98374.31
2018-02-22T05:57:44.113Z,98371.83
2018-02-22T06:00:11.955Z,98375.75
2018-02-22T06:02:39.680Z,98377.13
2018-02-22T06:05:07.314Z,98372.03
2018-02-22T06:07:34.889Z,98364.79
2018-02-22T06:10:02.545Z,98365.61
2018-02-22T06:12:30.243Z,98362.20
2018-02-22T06:14:57.706Z,98360.90
2018-02-22T06:17:25.517Z,98361.45
2018-02-22T06:19:53.353Z,98363.11
2018-02-22T06:22:20.921Z,98366.59
2018-02-22T06:24:48.372Z,98367.02
2018-02-22T06:27:15.857Z,98368.39
2018-02-22T06:29:43.361Z,98377.73
2018-02-22T06:32:11.320Z,98369.25
2018-02-22T06:34:38.818Z,98371.45
2018-02-22T06:37:06.491Z,98371.06
2018-02-22T06:39:34.389Z,98365.55
2018-02-22T06:51:00.183Z,98369.19
2018-02-22T06:56:30.859Z,98375.23
2018-02-22T06:58:59.012Z,98374.00
2018-02-22T07:01:26.623Z,98375.70
2018-02-22T07:03:54.109Z,98373.22
2018-02-22T07:06:21.559Z,98377.53
2018-02-22T07:08:49.108Z,98379.77
2018-02-22T07:11:16.569Z,98379.84
2018-02-22T07:13:44.024Z,98377.68
2018-02-22T07:16:11.487Z,98381.50
2018-02-22T07:18:38.926Z,98367.41
2018-02-22T07:21:06.383Z,98376.50
2018-02-22T07:23:33.824Z,98376.16
2018-02-22T07:26:01.291Z,98380.02
2018-02-22T07:28:28.972Z,98382.17
2018-02-22T07:30:56.605Z,98375.80
2018-02-22T07:33:24.077Z,98372.05
2018-02-22T07:35:51.518Z,98361.80
2018-02-22T07:38:18.983Z,98367.01
2018-02-22T07:40:46.448Z,98373.05
2018-02-22T07:43:13.921Z,98372.24
2018-02-22T07:45:41.410Z,98376.55
2018-02-22T07:48:08.882Z,98372.73
2018-02-22T07:50:36.372Z,98365.92
2018-02-22T07:53:03.832Z,98369.34
2018-02-22T07:55:31.275Z,98371.09
2018-02-22T07:57:58.841Z,98372.39
2018-02-22T08:00:26.315Z,98371.13
2018-02-22T08:02:53.793Z,98371.55
2018-02-22T08:05:21.267Z,98373.76
2018-02-22T08:07:48.753Z,98365.14
2018-02-22T08:10:16.258Z,98369.05
2018-02-22T08:12:43.735Z,98369.08
2018-02-22T08:15:11.212Z,98369.07
2018-02-22T08:17:38.716Z,98371.64
2018-02-22T08:20:06.172Z,98367.78
2018-02-22T08:22:33.630Z,98373.77
2018-02-22T08:25:01.139Z,98376.36
2018-02-22T08:27:28.586Z,98373.36
2018-02-22T08:29:56.045Z,98370.77
2018-02-22T08:32:23.502Z,98367.36
2018-02-22T08:34:51.048Z,98363.47
2018-02-22T08:37:18.496Z,98362.62
2018-02-22T08:39:46.032Z,98361.78
2018-02-22T08:42:13.492Z,98359.20
2018-02-22T08:44:40.975Z,98360.47
2018-02-22T08:47:08.441Z,98359.21
2018-02-22T08:49:36.041Z,98357.06
2018-02-22T08:52:03.531Z,98358.33
2018-02-22T08:54:31.017Z,98357.47
2018-02-22T08:56:58.496Z,98363.05
2018-02-22T08:59:26.034Z,98358.31
2018-02-22T09:01:53.503Z,98359.59
2018-02-22T09:04:23.601Z,98354.91
2018-02-22T09:06:51.171Z,98351.89
2018-02-22T09:09:18.731Z,98354.47
2018-02-22T09:11:46.201Z,98360.03
2018-02-22T09:14:13.655Z,98360.42
2018-02-22T09:16:41.141Z,98348.82
2018-02-22T09:19:08.676Z,98347.55
2018-02-22T09:21:36.126Z,98346.23
2018-02-22T09:24:03.627Z,98351.43
2018-02-22T09:26:31.087Z,98354.03
2018-02-22T09:28:58.547Z,98345.05
2018-02-22T09:31:26.066Z,98345.44
2018-02-22T09:33:53.537Z,98339.85
2018-02-22T09:36:22.127Z,98338.52
2018-02-22T09:38:49.708Z,98330.77
2018-02-22T09:41:17.185Z,98334.15
2018-02-22T09:43:44.746Z,98334.00
2018-02-22T09:46:12.236Z,98340.05
2018-02-22T09:48:39.916Z,98335.29
2018-02-22T09:51:07.430Z,98333.86
2018-02-22T09:53:35.032Z,98329.47
2018-02-22T09:56:02.526Z,98330.00
2018-02-22T09:58:30.082Z,98330.28
2018-02-22T10:00:57.623Z,98327.61
2018-02-22T10:03:25.078Z,98334.97
2018-02-22T10:05:52.572Z,98341.02
2018-02-22T10:08:20.118Z,98337.78
2018-02-22T10:10:47.584Z,98333.39
2018-02-22T10:13:15.212Z,98329.41
2018-02-22T10:15:42.696Z,98330.80
2018-02-22T10:18:10.172Z,98331.44
2018-02-22T10:20:37.762Z,98329.76
2018-02-22T10:23:05.229Z,98317.79
2018-02-22T10:25:32.706Z,98322.19
2018-02-22T10:28:00.174Z,98305.02
2018-02-22T10:30:28.010Z,98305.94
2018-02-22T10:32:56.658Z,98308.44
2018-02-22T10:35:24.308Z,98310.28
2018-02-22T10:37:51.790Z,98312.12
2018-02-22T10:40:19.388Z,98313.12
2018-02-22T10:42:46.957Z,98316.41
2018-02-22T10:45:14.440Z,98316.00
2018-02-22T10:47:41.962Z,98317.15
2018-02-22T10:50:09.440Z,98310.13
2018-02-22T10:52:37.003Z,98308.08
2018-02-22T10:55:04.648Z,98314.70
2018-02-22T10:57:32.133Z,98315.51
2018-02-22T10:59:59.614Z,98313.50
2018-02-22T11:02:32.708Z,98305.77
2018-02-22T11:07:53.096Z,98307.55
2018-02-22T11:10:20.669Z,98306.88
2018-02-22T11:12:48.127Z,98300.00
2018-02-22T11:15:15.592Z,98303.25
2018-02-22T11:17:43.041Z,98285.73
2018-02-22T11:20:10.584Z,98287.13
2018-02-22T11:22:38.052Z,98279.19
2018-02-22T11:25:05.498Z,98283.91
2018-02-22T11:27:33.078Z,98282.27
2018-02-22T11:30:00.717Z,98289.30
2018-02-22T11:32:28.177Z,98284.48
2018-02-22T11:34:55.710Z,98275.11
2018-02-22T11:37:23.199Z,98273.17
2018-02-22T11:39:50.726Z,98261.80
2018-02-22T11:42:18.213Z,98267.45
2018-02-22T11:44:45.684Z,98272.44
2018-02-22T11:47:15.994Z,98267.00
2018-02-22T11:49:43.459Z,98260.41
2018-02-22T11:52:10.953Z,98250.96
2018-02-22T11:54:38.488Z,98249.62
2018-02-22T11:57:05.965Z,98255.81
2018-02-22T11:59:34.630Z,98241.09
2018-02-22T12:02:02.135Z,98245.63
2018-02-22T12:04:29.597Z,98240.37
2018-02-22T12:06:57.149Z,98229.60
2018-02-22T12:09:25.635Z,98235.50
2018-02-22T12:11:53.116Z,98228.50
2018-02-22T12:14:20.597Z,98225.72
2018-02-22T12:16:48.063Z,98238.59
2018-02-22T12:19:15.531Z,98226.72
2018-02-22T12:21:43.037Z,98223.35
2018-02-22T12:24:10.528Z,98227.63
2018-02-22T12:26:38.009Z,98224.68
2018-02-22T12:29:05.473Z,98231.14
2018-02-22T12:31:32.929Z,98219.95
2018-02-22T12:34:00.487Z,98218.60
2018-02-22T12:36:28.039Z,98217.09
2018-02-22T12:38:55.563Z,98214.94
2018-02-22T12:41:23.044Z,98204.95
2018-02-22T12:43:50.514Z,98200.64
2018-02-22T12:46:17.970Z,98199.85
2018-02-22T12:48:45.443Z,98199.22
2018-02-22T12:51:12.915Z,98200.15
2018-02-22T12:53:40.456Z,98202.73
2018-02-22T12:56:07.916Z,98198.07
2018-02-22T12:58:35.411Z,98185.34
2018-02-22T13:01:02.954Z,98197.11
2018-02-22T13:03:30.423Z,98194.89
2018-02-22T13:05:57.871Z,98194.63
2018-02-22T13:08:25.318Z,98190.12
2018-02-22T13:10:52.781Z,98196.42
2018-02-22T13:13:20.235Z,98193.20
2018-02-22T13:15:47.698Z,98198.00
2018-02-22T13:18:15.215Z,98203.82
2018-02-22T13:20:42.839Z,98202.27
2018-02-22T13:23:10.437Z,98195.37
2018-02-22T13:25:37.902Z,98198.44
2018-02-22T13:28:05.468Z,98191.38
2018-02-22T13:30:32.922Z,98189.64
2018-02-22T13:33:12.056Z,98183.86
2018-02-22T13:35:39.568Z,98180.41
2018-02-22T13:38:18.639Z,98187.41
2018-02-22T13:40:46.092Z,98180.31
2018-02-22T13:43:13.552Z,98182.95
2018-02-22T13:45:41.233Z,98195.72
2018-02-22T13:48:08.700Z,98185.45
2018-02-22T13:50:47.991Z,98188.50
2018-02-22T13:53:15.471Z,98190.96
2018-02-22T13:55:42.966Z,98185.59
2018-02-22T13:58:10.470Z,98187.17
2018-02-22T14:00:49.552Z,98179.91
2018-02-22T14:03:17.055Z,98177.48
2018-02-22T14:05:44.569Z,98180.07
2018-02-22T14:08:23.568Z,98182.36
2018-02-22T14:10:51.045Z,98180.25
2018-02-22T14:13:18.505Z,98189.84
2018-02-22T14:15:46.046Z,98186.58
2018-02-22T14:18:13.524Z,98179.50
2018-02-22T14:20:41.032Z,98183.25
2018-02-22T14:23:08.490Z,98183.77
2018-02-22T14:25:35.966Z,98182.95
2018-02-22T14:28:03.440Z,98175.22
2018-02-22T14:30:30.916Z,98189.85
2018-02-22T14:32:58.452Z,98178.90
2018-02-22T14:35:25.912Z,98182.88
2018-02-22T14:37:53.393Z,98181.57
2018-02-22T14:40:20.847Z,98181.96
2018-02-22T14:42:48.363Z,98173.00
2018-02-22T14:45:15.807Z,98173.78
2018-02-22T14:47:43.321Z,98167.88
2018-02-22T14:50:10.784Z,98169.25
2018-02-22T14:52:38.323Z,98171.81
2018-02-22T14:55:05.802Z,98171.87
2018-02-22T14:57:33.263Z,98170.15
2018-02-22T15:00:00.741Z,98177.55
2018-02-22T15:02:28.266Z,98168.47
2018-02-22T15:04:55.710Z,98176.98
2018-02-22T15:07:23.274Z,98175.81
2018-02-22T15:09:50.749Z,98185.08
2018-02-22T15:12:18.258Z,98191.97
2018-02-22T15:14:45.784Z,98189.64
2018-02-22T15:17:13.242Z,98193.08
2018-02-22T15:19:40.713Z,98189.30
2018-02-22T15:22:08.175Z,98195.69
2018-02-22T15:24:35.655Z,98192.72
2018-02-22T15:27:03.134Z,98186.16
2018-02-22T15:29:30.652Z,98187.20
2018-02-22T15:31:58.167Z,98196.08
2018-02-22T15:34:25.631Z,98195.91
2018-02-22T15:36:53.070Z,98191.82
2018-02-22T15:39:20.555Z,98208.34
2018-02-22T15:41:48.096Z,98205.33
2018-02-22T15:44:15.549Z,98202.45
2018-02-22T15:46:43.193Z,98202.09
2018-02-22T15:49:10.764Z,98200.14
2018-02-22T15:51:38.215Z,98211.70
2018-02-22T15:54:05.660Z,98203.73
2018-02-22T15:56:33.120Z,98206.72
2018-02-22T15:59:00.721Z,98208.20
2018-02-22T16:01:28.874Z,98205.42
2018-02-22T16:06:35.747Z,98206.20
2018-02-22T16:09:03.375Z,98207.67
2018-02-22T16:11:31.960Z,98210.20
2018-02-22T16:13:59.450Z,98207.20
2018-02-22T16:16:29.403Z,98213.16
2018-02-22T16:18:56.871Z,98210.64
2018-02-22T16:21:27.225Z,98205.37
2018-02-22T16:23:54.731Z,98205.53
2018-02-22T16:26:26.678Z,98206.72
2018-02-22T16:28:54.122Z,98217.25
2018-02-22T16:31:21.609Z,98211.45
2018-02-22T16:33:49.062Z,98220.52
2018-02-22T16:36:17.233Z,98220.23
2018-02-22T16:38:44.718Z,98218.97
2018-02-22T16:41:12.426Z,98216.48
2018-02-22T16:43:39.900Z,98223.46
2018-02-22T16:46:07.363Z,98214.56
2018-02-22T16:48:34.819Z,98219.45
2018-02-22T16:51:02.306Z,98218.66
2018-02-22T16:53:29.764Z,98222.63
2018-02-22T16:55:57.245Z,98226.58
2018-02-22T16:58:24.758Z,98223.62
2018-02-22T17:00:52.208Z,98230.95
2018-02-22T17:03:19.670Z,98233.95
2018-02-22T17:05:47.228Z,98237.41
2018-02-22T17:08:14.774Z,98237.84
2018-02-22T17:10:43.079Z,98245.55
2018-02-22T17:13:10.594Z,98237.77
2018-02-22T17:15:38.113Z,98238.19
2018-02-22T17:18:05.659Z,98240.77
2018-02-22T17:20:33.231Z,98239.50
2018-02-22T17:23:00.703Z,98241.29
2018-02-22T17:25:27.596Z,98243.05
2018-02-22T17:28:00.667Z,98250.36
2018-02-22T17:30:33.590Z,98256.34
2018-02-22T17:33:01.105Z,98253.34
2018-02-22T17:38:41.573Z,98255.87
2018-02-22T17:41:11.481Z,98259.32
2018-02-22T17:43:38.963Z,98258.87
2018-02-22T17:46:06.432Z,98261.85
2018-02-22T17:48:34.042Z,98257.59
2018-02-22T17:51:01.514Z,98256.68
2018-02-22T17:53:29.015Z,98265.30
2018-02-22T17:55:56.475Z,98265.66
2018-02-22T17:58:23.998Z,98261.80
2018-02-22T18:00:51.492Z,98266.10
2018-02-22T18:03:18.939Z,98257.05
2018-02-22T18:05:46.490Z,98265.16
2018-02-22T18:08:13.952Z,98266.02
2018-02-22T18:10:41.398Z,98269.45
2018-02-22T18:13:08.875Z,98271.17
2018-02-22T18:15:36.328Z,98268.98
2018-02-22T18:18:03.792Z,98266.41
2018-02-22T18:20:31.289Z,98269.81
2018-02-22T18:22:58.762Z,98278.91
2018-02-22T18:25:26.198Z,98271.97
2018-02-22T18:27:53.647Z,98272.84
2018-02-22T18:30:21.186Z,98271.98
2018-02-22T18:32:48.689Z,98273.31
2018-02-22T18:35:16.230Z,98278.02
2018-02-22T18:37:49.455Z,98278.45
2018-02-22T18:40:22.458Z,98286.61
2018-02-22T18:42:49.897Z,98283.22
2018-02-22T18:45:17.343Z,98286.22
2018-02-22T18:47:44.821Z,98284.48
2018-02-22T18:50:12.278Z,98283.16
2018-02-22T18:52:39.790Z,98284.52
2018-02-22T18:55:07.367Z,98278.89
2018-02-22T18:57:34.854Z,98279.73
2018-02-22T19:00:02.540Z,98282.80
2018-02-22T19:02:30.003Z,98280.62
2018-02-22T19:04:57.457Z,98281.96
2018-02-22T19:07:24.907Z,98278.97
2018-02-22T19:09:52.519Z,98282.42
2018-02-22T19:12:19.981Z,98277.23
2018-02-22T19:14:47.489Z,98269.97
2018-02-22T19:17:14.943Z,98274.27
2018-02-22T19:19:42.382Z,98278.14
2018-02-22T19:22:13.433Z,98270.00
2018-02-22T19:24:41.092Z,98276.00
2018-02-22T19:27:08.561Z,98269.96
2018-02-22T19:29:36.030Z,98278.59
2018-02-22T19:32:03.496Z,98276.42
2018-02-22T19:34:30.968Z,98273.45
2018-02-22T19:36:58.460Z,98270.89
2018-02-22T19:39:25.994Z,98271.30
2018-02-22T19:41:53.438Z,98277.34
2018-02-22T19:44:21.042Z,98272.19
2018-02-22T19:46:48.558Z,98269.59
2018-02-22T19:49:15.996Z,98276.92
2018-02-22T19:51:43.549Z,98278.23
2018-02-22T19:54:10.998Z,98278.21
2018-02-22T19:56:38.470Z,98282.95
2018-02-22T19:59:05.926Z,98279.11
2018-02-22T20:01:33.379Z,98281.23
2018-02-22T20:04:00.903Z,98274.36
2018-02-22T20:06:28.365Z,98268.81
2018-02-22T20:08:55.815Z,98268.41
2018-02-22T20:11:23.292Z,98273.97
2018-02-22T20:13:50.770Z,98273.52
2018-02-22T20:16:18.294Z,98275.25
2018-02-22T20:18:45.807Z,98269.22
2018-02-22T20:21:13.321Z,98274.82
2018-02-22T20:23:40.757Z,98273.97
2018-02-22T20:26:08.236Z,98273.09
2018-02-22T20:28:35.700Z,98278.69
2018-02-22T20:31:03.287Z,98276.59
2018-02-22T20:33:32.506Z,98276.98
2018-02-22T20:36:00.015Z,98276.58
2018-02-22T20:38:27.502Z,98273.98
2018-02-22T20:40:55.013Z,98273.98
2018-02-22T20:43:22.493Z,98276.97
2018-02-22T20:45:49.970Z,98277.03
2018-02-22T20:48:17.487Z,98273.57
2018-02-22T20:50:44.998Z,98267.58
2018-02-22T20:53:17.985Z,98275.75
2018-02-22T20:55:45.458Z,98274.91
2018-02-22T20:58:12.964Z,98277.00
2018-02-22T21:00:40.422Z,98279.63
2018-02-22T21:03:08.069Z,98277.03
2018-02-22T21:05:35.515Z,98280.05
2018-02-22T21:08:02.986Z,98278.73
2018-02-22T21:10:30.433Z,98277.01
2018-02-22T21:12:58.072Z,98278.31
2018-02-22T21:15:25.534Z,98274.02
2018-02-22T21:17:53.340Z,98270.16
2018-02-22T21:20:20.823Z,98271.03
2018-02-22T21:22:48.296Z,98274.45
2018-02-22T21:25:15.734Z,98271.48
2018-02-22T21:27:43.285Z,98268.92
2018-02-22T21:30:10.788Z,98273.22
2018-02-22T21:32:38.239Z,98274.48
2018-02-22T21:35:05.703Z,98272.36
2018-02-22T21:37:33.195Z,98275.78
2018-02-22T21:40:00.723Z,98268.06
2018-02-22T21:42:28.106Z,98275.80
2018-02-22T21:44:55.596Z,98279.20
2018-02-22T21:47:23.128Z,98285.22
2018-02-22T21:49:50.788Z,98280.12
2018-02-22T21:52:21.959Z,98287.84
2018-02-22T21:54:49.651Z,98282.69
2018-02-22T21:57:17.119Z,98286.98
2018-02-22T21:59:44.647Z,98292.11
2018-02-22T22:02:12.120Z,98302.45
2018-02-22T22:04:39.628Z,98300.31
2018-02-22T22:07:07.040Z,98302.89
2018-02-22T22:09:34.501Z,98303.31
2018-02-22T22:12:01.986Z,98304.15
2018-02-22T22:14:29.471Z,98305.88
2018-02-22T22:16:57.160Z,98309.73
2018-02-22T22:19:24.703Z,98303.73
2018-02-22T22:21:52.356Z,98300.28
2018-02-22T22:24:19.799Z,98296.42
2018-02-22T22:26:48.263Z,98292.56
2018-02-22T22:29:15.707Z,98294.27
2018-02-22T22:31:43.158Z,98298.55
2018-02-22T22:34:10.730Z,98291.69
2018-02-22T22:36:38.171Z,98286.55
2018-02-22T22:39:05.631Z,98286.13
2018-02-22T22:41:33.072Z,98288.27
2018-02-22T22:44:00.617Z,98288.25
2018-02-22T22:46:28.023Z,98284.83
2018-02-22T22:48:55.479Z,98286.14
2018-02-22T22:51:22.928Z,98287.43
2018-02-22T22:53:50.381Z,98278.39
2018-02-22T22:56:17.914Z,98280.97
2018-02-22T22:58:45.388Z,98274.94
2018-02-22T23:01:12.839Z,98272.83
2018-02-22T23:03:40.293Z,98276.24
2018-02-22T23:06:07.760Z,98267.23
2018-02-22T23:08:35.221Z,98268.13
2018-02-22T23:11:02.691Z,98268.53
2018-02-22T23:13:30.165Z,98269.83
2018-02-22T23:15:57.619Z,98274.95
2018-02-22T23:18:25.168Z,98276.26
2018-02-22T23:20:52.639Z,98276.25
2018-02-22T23:23:20.112Z,98271.96
2018-02-22T23:25:47.577Z,98277.93
2018-02-22T23:28:15.120Z,98274.93
2018-02-22T23:30:42.602Z,98285.30
2018-02-22T23:33:10.074Z,98272.41
2018-02-22T23:35:37.567Z,98269.83
2018-02-22T23:38:06.468Z,98269.84
2018-02-22T23:40:34.426Z,98275.42
2018-02-22T23:43:01.926Z,98274.16
2018-02-22T23:45:29.422Z,98278.01
2018-02-22T23:47:56.892Z,98276.31
2018-02-22T23:50:24.363Z,98274.20
2018-02-22T23:52:51.810Z,98278.05
2018-02-22T23:55:19.274Z,98270.75
2018-02-22T23:57:46.852Z,98273.31
